createdAt,value
2018-06-13T00:01:28.282Z,65.44
2018-06-13T00:04:16.222Z,66.98
2018-06-13T00:07:05.172Z,66.90
2018-06-13T00:09:57.657Z,65.30
2018-06-13T00:12:43.907Z,64.77
2018-06-13T00:15:30.343Z,64.87
2018-06-13T00:18:11.942Z,65.40
2018-06-13T00:21:04.968Z,65.46
2018-06-13T00:23:47.616Z,66.26
2018-06-13T00:26:35.097Z,67.09
2018-06-13T00:29:23.613Z,66.27
2018-06-13T00:32:00.365Z,66.63
2018-06-13T00:37:18.092Z,67.55
2018-06-13T00:39:51.088Z,67.53
2018-06-13T00:42:27.990Z,67.69
2018-06-13T00:45:10.826Z,68.32
2018-06-13T00:47:54.338Z,67.96
2018-06-13T00:50:28.755Z,67.59
2018-06-13T00:53:05.834Z,67.46
2018-06-13T00:55:53.946Z,67.18
2018-06-13T00:58:36.584Z,67.67
2018-06-13T01:01:12.908Z,68.38
2018-06-13T01:03:50.711Z,67.33
2018-06-13T01:06:30.190Z,67.57
2018-06-13T01:09:08.910Z,67.54
2018-06-13T01:11:46.766Z,67.45
2018-06-13T01:14:27.631Z,68.24
2018-06-13T01:17:07.372Z,66.64
2018-06-13T01:19:51.534Z,66.48
2018-06-13T01:22:32.106Z,67.83
2018-06-13T01:27:52.438Z,67.40
2018-06-13T01:30:30.068Z,66.41
2018-06-13T01:33:03.216Z,66.13
2018-06-13T01:35:43.068Z,66.13
2018-06-13T01:38:25.204Z,65.33
2018-06-13T01:41:10.118Z,66.02
2018-06-13T01:43:54.808Z,65.58
2018-06-13T01:46:41.531Z,66.41
2018-06-13T01:49:18.937Z,66.87
2018-06-13T01:51:59.843Z,66.21
2018-06-13T01:54:34.652Z,66.35
2018-06-13T01:57:21.034Z,66.11
2018-06-13T01:59:55.956Z,66.81
2018-06-13T02:02:36.167Z,66.43
2018-06-13T02:05:12.054Z,66.98
2018-06-13T02:07:50.687Z,65.89
2018-06-13T02:10:30.437Z,67.11
2018-06-13T02:13:09.720Z,65.80
2018-06-13T02:15:50.046Z,67.18
2018-06-13T02:18:29.684Z,67.16
2018-06-13T02:21:12.325Z,66.94
2018-06-13T02:23:51.689Z,66.81
2018-06-13T02:26:31.354Z,66.51
2018-06-13T02:29:09.675Z,67.07
2018-06-13T02:31:44.876Z,67.83
2018-06-13T02:34:27.969Z,67.87
2018-06-13T02:37:10.551Z,67.80
2018-06-13T02:39:44.686Z,67.59
2018-06-13T02:42:20.143Z,68.27
2018-06-13T02:44:56.667Z,67.33
2018-06-13T02:47:36.836Z,67.21
2018-06-13T02:50:14.217Z,67.33
2018-06-13T02:52:58.817Z,67.01
2018-06-13T02:55:38.856Z,66.62
2018-06-13T02:58:22.381Z,67.56
2018-06-13T03:01:05.755Z,66.51
2018-06-13T03:03:47.299Z,66.07
2018-06-13T03:06:27.528Z,66.35
2018-06-13T03:09:12.024Z,66.45
2018-06-13T03:14:26.057Z,66.82
2018-06-13T03:17:05.985Z,67.30
2018-06-13T03:19:41.250Z,67.21
2018-06-13T03:22:14.332Z,67.64
2018-06-13T03:24:44.918Z,66.97
2018-06-13T03:27:14.980Z,67.30
2018-06-13T03:32:21.173Z,68.29
2018-06-13T03:34:51.910Z,67.15
2018-06-13T03:40:02.174Z,66.64
2018-06-13T03:42:31.758Z,66.46
2018-06-13T03:45:02.846Z,66.50
2018-06-13T03:47:33.855Z,65.17
2018-06-13T03:50:04.403Z,65.04
2018-06-13T03:52:34.561Z,65.22
2018-06-13T03:55:06.498Z,66.72
2018-06-13T03:57:36.904Z,67.56
2018-06-13T04:00:06.617Z,66.70
2018-06-13T04:02:36.270Z,65.00
2018-06-13T04:05:06.199Z,66.72
2018-06-13T04:07:36.061Z,66.62
2018-06-13T04:10:05.706Z,65.85
2018-06-13T04:12:36.968Z,65.54
2018-06-13T04:15:07.004Z,64.83
2018-06-13T04:17:36.730Z,65.51
2018-06-13T04:20:06.521Z,65.25
2018-06-13T04:22:36.952Z,64.89
2018-06-13T04:25:07.916Z,63.66
2018-06-13T04:27:37.696Z,63.33
2018-06-13T04:30:07.693Z,63.41
2018-06-13T04:32:38.345Z,63.55
2018-06-13T04:35:08.042Z,64.13
2018-06-13T04:37:38.735Z,63.18
2018-06-13T04:40:17.143Z,63.75
2018-06-13T04:42:53.365Z,64.46
2018-06-13T04:45:30.942Z,63.47
2018-06-13T04:48:06.573Z,63.77
2018-06-13T04:50:49.737Z,63.43
2018-06-13T04:53:27.330Z,62.71
2018-06-13T04:56:00.195Z,60.68
2018-06-13T04:58:43.980Z,60.55
2018-06-13T05:04:01.969Z,61.89
2018-06-13T05:06:39.617Z,62.18
2018-06-13T05:09:19.801Z,61.58
2018-06-13T05:11:54.501Z,60.28
2018-06-13T05:14:27.992Z,60.04
2018-06-13T05:17:08.556Z,59.07
2018-06-13T05:19:47.426Z,60.41
2018-06-13T05:22:27.020Z,59.16
2018-06-13T05:27:47.639Z,59.44
2018-06-13T05:30:25.925Z,58.27
2018-06-13T05:33:04.764Z,56.89
2018-06-13T05:35:43.402Z,58.94
2018-06-13T05:38:16.749Z,59.45
2018-06-13T05:40:56.022Z,56.98
2018-06-13T05:43:39.879Z,57.60
2018-06-13T05:46:18.532Z,56.18
2018-06-13T05:49:01.470Z,57.68
2018-06-13T05:51:36.180Z,56.06
2018-06-13T05:54:27.264Z,56.70
2018-06-13T05:57:08.521Z,56.12
2018-06-13T05:59:53.988Z,54.80
2018-06-13T06:02:33.886Z,54.94
2018-06-13T06:05:19.329Z,54.94
2018-06-13T06:08:09.098Z,54.22
2018-06-13T06:10:45.965Z,55.65
2018-06-13T06:13:24.825Z,53.33
2018-06-13T06:18:55.735Z,53.99
2018-06-13T06:21:40.706Z,53.67
2018-06-13T06:24:26.588Z,56.18
2018-06-13T06:38:09.423Z,56.71
2018-06-13T06:43:31.802Z,56.12
2018-06-13T06:46:09.010Z,55.48
2018-06-13T06:48:48.439Z,55.58
2018-06-13T06:51:27.313Z,54.83
2018-06-13T06:56:57.547Z,53.93
2018-06-13T07:02:36.253Z,52.20
2018-06-13T07:10:51.897Z,53.86
2018-06-13T07:13:30.267Z,53.56
2018-06-13T07:21:44.512Z,55.06
2018-06-13T07:24:18.243Z,54.36
2018-06-13T07:26:51.913Z,53.87
2018-06-13T07:29:37.520Z,53.62
2018-06-13T07:32:17.716Z,54.14
2018-06-13T07:35:04.594Z,53.41
2018-06-13T07:37:48.957Z,52.88
2018-06-13T07:40:30.886Z,52.35
2018-06-13T07:46:05.779Z,53.13
2018-06-13T07:48:56.746Z,50.58
2018-06-13T07:54:21.809Z,53.02
2018-06-13T07:57:10.669Z,52.43
2018-06-13T07:59:49.390Z,54.55
2018-06-13T08:02:38.104Z,52.81
2018-06-13T08:05:19.855Z,51.18
2018-06-13T08:10:44.588Z,50.74
2018-06-13T08:13:27.760Z,52.38
2018-06-13T08:18:59.949Z,51.57
2018-06-13T08:24:30.526Z,51.93
2018-06-13T08:27:13.794Z,53.22
2018-06-13T08:32:44.911Z,52.98
2018-06-13T08:35:22.789Z,52.42
2018-06-13T08:38:10.965Z,52.42
2018-06-13T08:41:04.286Z,51.62
2018-06-13T08:46:25.845Z,52.50
2018-06-13T08:51:59.780Z,51.28
2018-06-13T08:57:26.369Z,51.03
2018-06-13T09:00:05.591Z,51.74
2018-06-13T09:05:42.440Z,50.31
2018-06-13T09:08:27.085Z,51.01
2018-06-13T09:19:23.799Z,49.85
2018-06-13T09:24:58.555Z,51.06
2018-06-13T09:30:30.044Z,48.35
2018-06-13T09:33:09.823Z,49.51
2018-06-13T09:35:59.999Z,49.04
2018-06-13T09:38:39.754Z,50.12
2018-06-13T09:41:21.855Z,47.20
2018-06-13T09:44:04.913Z,47.37
2018-06-13T09:46:51.075Z,48.84
2018-06-13T09:52:18.190Z,49.00
2018-06-13T09:55:07.080Z,50.87
2018-06-13T10:03:36.723Z,47.67
2018-06-13T10:06:17.858Z,48.85
2018-06-13T10:09:06.852Z,47.84
2018-06-13T10:11:45.234Z,48.40
2018-06-13T10:14:33.914Z,48.22
2018-06-13T10:19:59.886Z,46.18
2018-06-13T10:22:34.301Z,47.00
2018-06-13T10:27:50.075Z,47.48
2018-06-13T10:33:23.860Z,47.14
2018-06-13T10:36:18.133Z,46.82
2018-06-13T10:39:05.346Z,46.63
2018-06-13T10:50:15.994Z,44.74
2018-06-13T10:52:57.424Z,46.05
2018-06-13T10:58:21.799Z,45.12
2018-06-13T11:00:58.856Z,45.95
2018-06-13T11:03:40.027Z,48.13
2018-06-13T11:06:22.773Z,45.85
2018-06-13T11:11:52.400Z,43.78
2018-06-13T11:14:38.681Z,43.59
2018-06-13T11:27:58.274Z,42.99
2018-06-13T11:30:36.260Z,44.92
2018-06-13T11:33:12.253Z,46.00
2018-06-13T11:35:52.373Z,46.93
2018-06-13T11:38:31.298Z,46.43
2018-06-13T11:41:11.490Z,45.23
2018-06-13T11:43:53.038Z,44.82
2018-06-13T11:46:37.081Z,44.22
2018-06-13T11:49:29.784Z,47.40
2018-06-13T11:52:06.127Z,45.66
2018-06-13T11:54:46.510Z,46.51
2018-06-13T11:57:31.432Z,46.68
2018-06-13T12:00:16.324Z,47.18
2018-06-13T12:02:56.318Z,46.17
2018-06-13T12:05:35.710Z,45.75
2018-06-13T12:08:14.331Z,47.10
2018-06-13T12:10:49.091Z,47.28
2018-06-13T12:13:26.880Z,48.06
2018-06-13T12:15:57.255Z,46.77
2018-06-13T12:18:30.101Z,47.03
2018-06-13T12:24:10.403Z,46.88
2018-06-13T12:26:46.820Z,44.69
2018-06-13T12:29:36.104Z,46.08
2018-06-13T12:35:01.456Z,45.94
2018-06-13T12:37:46.597Z,45.75
2018-06-13T12:48:52.955Z,44.77
2018-06-13T12:51:36.096Z,44.57
2018-06-13T12:57:08.334Z,46.67
2018-06-13T12:59:59.503Z,46.52
2018-06-13T13:02:40.488Z,45.55
2018-06-13T13:13:44.091Z,43.43
2018-06-13T13:16:32.022Z,45.21
2018-06-13T13:19:14.068Z,45.34
2018-06-13T13:22:03.415Z,45.44
2018-06-13T13:27:46.238Z,46.82
2018-06-13T13:33:14.720Z,48.52
2018-06-13T13:35:53.166Z,48.70
2018-06-13T13:44:13.035Z,48.50
2018-06-13T13:46:52.175Z,47.66
2018-06-13T14:00:52.211Z,55.12
2018-06-13T14:06:24.444Z,58.93
2018-06-13T14:11:50.460Z,59.11
2018-06-13T14:20:24.550Z,59.51
2018-06-13T14:28:39.433Z,60.48
2018-06-13T14:34:05.774Z,62.05
2018-06-13T14:39:55.025Z,61.49
2018-06-13T14:48:35.960Z,62.45
2018-06-13T14:51:20.005Z,61.71
2018-06-13T14:54:07.595Z,63.14
2018-06-13T14:56:57.071Z,62.04
2018-06-13T14:59:35.431Z,61.15
2018-06-13T15:02:14.535Z,61.86
2018-06-13T15:05:02.499Z,62.31
2018-06-13T15:07:43.072Z,65.13
2018-06-13T15:13:18.868Z,65.17
2018-06-13T15:16:07.640Z,65.79
2018-06-13T15:21:46.503Z,65.21
2018-06-13T15:24:25.180Z,63.90
2018-06-13T15:27:12.791Z,63.36
2018-06-13T15:29:46.938Z,64.16
2018-06-13T15:32:33.109Z,63.09
2018-06-13T15:35:12.602Z,63.78
2018-06-13T15:40:37.355Z,63.20
2018-06-13T15:43:12.496Z,62.80
2018-06-13T15:45:51.999Z,63.21
2018-06-13T15:48:31.188Z,63.75
2018-06-13T15:51:05.390Z,63.57
2018-06-13T15:56:29.441Z,64.37
2018-06-13T15:59:14.316Z,64.98
2018-06-13T16:01:57.764Z,63.70
2018-06-13T16:07:29.526Z,63.71
2018-06-13T16:12:48.573Z,64.16
2018-06-13T16:15:31.132Z,64.43
2018-06-13T16:18:19.165Z,64.72
2018-06-13T16:21:03.539Z,64.48
2018-06-13T16:23:45.930Z,66.13
2018-06-13T16:26:26.168Z,65.54
2018-06-13T16:29:03.742Z,65.54
2018-06-13T16:31:43.041Z,65.83
2018-06-13T16:34:26.509Z,65.41
2018-06-13T16:37:09.485Z,64.95
2018-06-13T16:39:55.328Z,66.45
2018-06-13T16:45:27.967Z,66.65
2018-06-13T16:48:05.894Z,65.13
2018-06-13T16:50:50.687Z,65.47
2018-06-13T16:53:38.437Z,66.28
2018-06-13T16:56:14.893Z,66.58
2018-06-13T16:58:56.787Z,65.86
2018-06-13T17:01:34.486Z,67.03
2018-06-13T17:04:10.612Z,65.93
2018-06-13T17:06:46.218Z,66.20
2018-06-13T17:09:21.645Z,66.56
2018-06-13T17:12:01.253Z,66.30
2018-06-13T17:14:46.650Z,66.22
2018-06-13T17:17:28.983Z,68.04
2018-06-13T17:25:41.080Z,67.23
2018-06-13T17:31:10.309Z,66.27
2018-06-13T17:34:05.935Z,65.90
2018-06-13T17:36:51.874Z,66.14
2018-06-13T17:39:38.565Z,67.35
2018-06-13T17:42:31.797Z,67.08
2018-06-13T17:50:56.075Z,64.51
2018-06-13T17:53:42.836Z,64.01
2018-06-13T17:56:28.452Z,64.20
2018-06-13T17:59:13.045Z,65.24
2018-06-13T18:01:51.784Z,65.22
2018-06-13T18:07:15.619Z,66.11
2018-06-13T18:09:54.554Z,66.96
2018-06-13T18:12:32.968Z,66.24
2018-06-13T18:15:20.634Z,66.43
2018-06-13T18:20:58.651Z,66.76
2018-06-13T18:23:44.635Z,67.45
2018-06-13T18:26:26.932Z,66.73
2018-06-13T18:40:37.062Z,66.62
2018-06-13T18:43:27.193Z,67.28
2018-06-13T18:46:08.702Z,66.19
2018-06-13T18:48:54.952Z,66.06
2018-06-13T18:54:27.411Z,65.06
2018-06-13T18:57:10.613Z,65.46
2018-06-13T19:02:48.520Z,64.22
2018-06-13T19:05:41.829Z,64.08
2018-06-13T19:08:21.987Z,64.59
2018-06-13T19:11:09.896Z,63.83
2018-06-13T19:16:52.837Z,63.14
2018-06-13T19:19:33.929Z,63.08
2018-06-13T19:22:19.880Z,62.64
2018-06-13T19:25:04.093Z,63.76
2018-06-13T19:27:42.347Z,63.23
2018-06-13T19:36:28.109Z,63.19
2018-06-13T19:39:14.112Z,64.04
2018-06-13T19:47:38.802Z,65.13
2018-06-13T19:50:26.202Z,64.01
2018-06-13T19:53:10.180Z,63.09
2018-06-13T19:56:02.433Z,62.72
2018-06-13T19:58:51.427Z,62.97
2018-06-13T20:04:29.665Z,64.10
2018-06-13T20:10:03.669Z,64.68
2018-06-13T20:12:56.641Z,64.67
2018-06-13T20:18:33.461Z,64.41
2018-06-13T20:21:17.423Z,64.96
2018-06-13T20:29:35.607Z,64.09
2018-06-13T20:32:26.735Z,64.43
2018-06-13T20:37:49.699Z,65.20
2018-06-13T20:43:24.892Z,65.30
2018-06-13T20:49:02.702Z,64.62
2018-06-13T20:54:34.177Z,64.19
2018-06-13T20:57:09.387Z,64.87
2018-06-13T21:02:40.340Z,64.73
2018-06-13T21:05:15.633Z,64.30
2018-06-13T21:08:06.342Z,63.71
2018-06-13T21:10:54.562Z,64.84
2018-06-13T21:13:30.919Z,64.33
2018-06-13T21:16:07.026Z,65.35
2018-06-13T21:18:43.542Z,65.43
2018-06-13T21:24:14.546Z,65.41
2018-06-13T21:26:58.845Z,65.05
2018-06-13T21:29:45.521Z,65.34
2018-06-13T21:32:34.231Z,64.50
2018-06-13T21:35:23.116Z,64.44
2018-06-13T21:46:30.365Z,65.17
2018-06-13T21:49:17.437Z,64.30
2018-06-13T21:52:08.006Z,65.54
2018-06-13T21:54:49.804Z,65.53
2018-06-13T21:57:35.861Z,64.84
2018-06-13T22:00:12.800Z,65.03
2018-06-13T22:03:02.624Z,65.62
2018-06-13T22:05:49.229Z,66.72
2018-06-13T22:08:31.549Z,64.82
2018-06-13T22:11:11.443Z,65.10
2018-06-13T22:13:59.729Z,65.86
2018-06-13T22:16:35.006Z,67.02
2018-06-13T22:22:04.242Z,64.66
2018-06-13T22:27:24.130Z,66.38
2018-06-13T22:35:26.414Z,67.32
2018-06-13T22:41:03.671Z,66.90
2018-06-13T22:43:47.256Z,66.61
2018-06-13T22:46:37.040Z,66.24
2018-06-13T22:49:28.177Z,65.82
2018-06-13T22:52:12.728Z,66.01
2018-06-13T22:54:54.155Z,65.04
2018-06-13T22:57:43.061Z,64.63
2018-06-13T23:00:31.271Z,64.89
2018-06-13T23:03:12.938Z,65.42
2018-06-13T23:05:53.866Z,65.76
2018-06-13T23:08:27.297Z,66.73
2018-06-13T23:13:42.564Z,66.37
2018-06-13T23:16:31.155Z,66.48
2018-06-13T23:19:09.561Z,66.38
2018-06-13T23:21:59.288Z,66.33
2018-06-13T23:24:41.404Z,65.40
2018-06-13T23:27:26.748Z,63.97
2018-06-13T23:30:11.552Z,64.40
2018-06-13T23:35:39.558Z,64.76
2018-06-13T23:38:22.478Z,64.56
2018-06-13T23:41:01.714Z,64.17
2018-06-13T23:43:36.256Z,64.49
2018-06-13T23:46:11.743Z,65.14
2018-06-13T23:48:55.337Z,64.74
2018-06-13T23:54:24.332Z,65.34
